sensor_id;sensor_type;location;lat;lon;timestamp;pressure;altitude;pressure_sealevel;temperature;humidity
10135;BME280;5107;48.850;8.924;2022-12-29T00:01:35;96355.69;;;7.51;76.55
10135;BME280;5107;48.850;8.924;2022-12-29T00:04:04;96354.88;;;7.51;76.82
10135;BME280;5107;48.850;8.924;2022-12-29T00:06:32;96352.06;;;7.44;76.91
10135;BME280;5107;48.850;8.924;2022-12-29T00:08:59;96343.56;;;7.42;77.23
10135;BME280;5107;48.850;8.924;2022-12-29T00:11:27;96346.19;;;7.42;76.94
10135;BME280;5107;48.850;8.924;2022-12-29T00:13:54;96347.31;;;7.48;76.64
10135;BME280;5107;48.850;8.924;2022-12-29T00:16:42;96343.44;;;7.52;77.03
10135;BME280;5107;48.850;8.924;2022-12-29T00:19:12;96339.34;;;7.57;76.32
10135;BME280;5107;48.850;8.924;2022-12-29T00:21:53;96337.56;;;7.66;75.70
10135;BME280;5107;48.850;8.924;2022-12-29T00:24:37;96332.66;;;7.71;75.61
10135;BME280;5107;48.850;8.924;2022-12-29T00:27:22;96339.53;;;7.80;74.86
10135;BME280;5107;48.850;8.924;2022-12-29T00:30:09;96337.75;;;7.89;74.05
10135;BME280;5107;48.850;8.924;2022-12-29T00:32:54;96328.91;;;7.90;73.89
10135;BME280;5107;48.850;8.924;2022-12-29T00:35:45;96339.56;;;7.96;74.03
10135;BME280;5107;48.850;8.924;2022-12-29T00:38:13;96326.97;;;8.08;73.61
10135;BME280;5107;48.850;8.924;2022-12-29T00:40:58;96330.06;;;8.20;72.77
10135;BME280;5107;48.850;8.924;2022-12-29T00:43:43;96322.38;;;8.10;73.27
10135;BME280;5107;48.850;8.924;2022-12-29T00:46:27;96321.22;;;8.13;73.17
10135;BME280;5107;48.850;8.924;2022-12-29T00:48:54;96326.13;;;8.08;73.52
10135;BME280;5107;48.850;8.924;2022-12-29T00:51:41;96324.34;;;8.08;73.54
10135;BME280;5107;48.850;8.924;2022-12-29T00:54:08;96321.88;;;8.07;73.97
10135;BME280;5107;48.850;8.924;2022-12-29T00:56:35;96330.41;;;8.09;73.44
10135;BME280;5107;48.850;8.924;2022-12-29T00:59:03;96324.84;;;8.12;73.50
10135;BME280;5107;48.850;8.924;2022-12-29T01:01:30;96323.66;;;8.06;73.93
10135;BME280;5107;48.850;8.924;2022-12-29T01:03:57;96328.75;;;8.08;73.91
10135;BME280;5107;48.850;8.924;2022-12-29T01:06:24;96335.28;;;8.04;73.99
10135;BME280;5107;48.850;8.924;2022-12-29T01:08:53;96329.41;;;8.10;73.94
10135;BME280;5107;48.850;8.924;2022-12-29T01:11:34;96333.50;;;8.04;74.65
10135;BME280;5107;48.850;8.924;2022-12-29T01:14:01;96327.94;;;8.07;74.68
10135;BME280;5107;48.850;8.924;2022-12-29T01:16:30;96336.31;;;8.11;74.37
10135;BME280;5107;48.850;8.924;2022-12-29T01:18:57;96335.94;;;8.14;74.60
10135;BME280;5107;48.850;8.924;2022-12-29T01:21:25;96335.47;;;8.18;74.54
10135;BME280;5107;48.850;8.924;2022-12-29T01:23:53;96334.81;;;8.24;74.18
10135;BME280;5107;48.850;8.924;2022-12-29T01:26:21;96337.13;;;8.19;74.63
10135;BME280;5107;48.850;8.924;2022-12-29T01:28:51;96339.91;;;8.26;74.58
10135;BME280;5107;48.850;8.924;2022-12-29T01:31:19;96342.00;;;8.30;74.66
10135;BME280;5107;48.850;8.924;2022-12-29T01:33:46;96343.19;;;8.28;74.97
10135;BME280;5107;48.850;8.924;2022-12-29T01:36:15;96344.50;;;8.32;74.71
10135;BME280;5107;48.850;8.924;2022-12-29T01:38:43;96339.56;;;8.37;74.78
10135;BME280;5107;48.850;8.924;2022-12-29T01:41:15;96341.72;;;8.42;74.88
10135;BME280;5107;48.850;8.924;2022-12-29T01:43:46;96346.59;;;8.69;74.11
10135;BME280;5107;48.850;8.924;2022-12-29T01:46:23;96342.22;;;9.08;72.54
10135;BME280;5107;48.850;8.924;2022-12-29T01:48:57;96332.06;;;9.44;70.95
10135;BME280;5107;48.850;8.924;2022-12-29T01:51:26;96327.06;;;9.80;69.28
10135;BME280;5107;48.850;8.924;2022-12-29T01:53:56;96322.88;;;10.17;67.35
10135;BME280;5107;48.850;8.924;2022-12-29T01:56:26;96315.34;;;10.37;66.34
10135;BME280;5107;48.850;8.924;2022-12-29T01:58:59;96314.91;;;10.48;65.77
10135;BME280;5107;48.850;8.924;2022-12-29T02:01:28;96313.47;;;10.60;65.29
10135;BME280;5107;48.850;8.924;2022-12-29T02:03:55;96308.13;;;10.68;64.69
10135;BME280;5107;48.850;8.924;2022-12-29T02:06:28;96310.03;;;10.74;64.33
10135;BME280;5107;48.850;8.924;2022-12-29T02:08:56;96307.22;;;10.76;64.59
10135;BME280;5107;48.850;8.924;2022-12-29T02:11:27;96293.16;;;10.83;63.58
10135;BME280;5107;48.850;8.924;2022-12-29T02:13:55;96300.25;;;10.83;63.77
10135;BME280;5107;48.850;8.924;2022-12-29T02:16:51;96297.06;;;11.02;62.73
10135;BME280;5107;48.850;8.924;2022-12-29T02:19:58;96289.59;;;11.06;62.44
10135;BME280;5107;48.850;8.924;2022-12-29T02:22:37;96296.03;;;11.18;62.41
10135;BME280;5107;48.850;8.924;2022-12-29T02:25:52;96297.19;;;11.30;61.82
10135;BME280;5107;48.850;8.924;2022-12-29T02:31:51;96298.22;;;11.29;62.12
10135;BME280;5107;48.850;8.924;2022-12-29T02:34:29;96279.66;;;11.37;61.33
10135;BME280;5107;48.850;8.924;2022-12-29T02:37:05;96288.41;;;11.37;61.34
10135;BME280;5107;48.850;8.924;2022-12-29T02:39:40;96292.47;;;11.40;61.65
10135;BME280;5107;48.850;8.924;2022-12-29T02:42:18;96278.91;;;11.43;61.50
10135;BME280;5107;48.850;8.924;2022-12-29T02:44:55;96290.28;;;11.44;60.94
10135;BME280;5107;48.850;8.924;2022-12-29T02:47:30;96278.44;;;11.54;60.74
10135;BME280;5107;48.850;8.924;2022-12-29T02:50:11;96274.66;;;11.63;60.58
10135;BME280;5107;48.850;8.924;2022-12-29T02:52:46;96273.41;;;11.59;60.74
10135;BME280;5107;48.850;8.924;2022-12-29T02:55:17;96273.78;;;11.56;61.00
10135;BME280;5107;48.850;8.924;2022-12-29T02:57:43;96274.19;;;11.53;61.00
10135;BME280;5107;48.850;8.924;2022-12-29T03:00:15;96271.09;;;11.50;61.36
10135;BME280;5107;48.850;8.924;2022-12-29T03:03:14;96285.91;;;11.51;61.07
10135;BME280;5107;48.850;8.924;2022-12-29T03:06:03;96274.53;;;11.50;61.11
10135;BME280;5107;48.850;8.924;2022-12-29T03:08:39;96278.16;;;11.49;61.22
10135;BME280;5107;48.850;8.924;2022-12-29T03:11:13;96276.72;;;11.47;61.40
10135;BME280;5107;48.850;8.924;2022-12-29T03:14:01;96271.78;;;11.58;60.34
10135;BME280;5107;48.850;8.924;2022-12-29T03:16:49;96269.91;;;11.52;61.12
10135;BME280;5107;48.850;8.924;2022-12-29T03:19:24;96275.81;;;11.54;60.68
10135;BME280;5107;48.850;8.924;2022-12-29T03:21:56;96266.69;;;11.57;60.43
10135;BME280;5107;48.850;8.924;2022-12-29T03:24:50;96268.78;;;11.61;60.52
10135;BME280;5107;48.850;8.924;2022-12-29T03:27:32;96267.63;;;11.49;61.31
10135;BME280;5107;48.850;8.924;2022-12-29T03:30:04;96266.28;;;11.53;60.73
10135;BME280;5107;48.850;8.924;2022-12-29T03:32:37;96254.41;;;11.43;61.20
10135;BME280;5107;48.850;8.924;2022-12-29T03:35:11;96253.75;;;11.40;61.51
10135;BME280;5107;48.850;8.924;2022-12-29T03:37:44;96244.78;;;11.35;61.87
10135;BME280;5107;48.850;8.924;2022-12-29T03:40:12;96243.28;;;11.26;62.28
10135;BME280;5107;48.850;8.924;2022-12-29T03:42:39;96244.72;;;11.28;61.99
10135;BME280;5107;48.850;8.924;2022-12-29T03:45:09;96253.16;;;11.24;62.34
10135;BME280;5107;48.850;8.924;2022-12-29T03:47:37;96260.19;;;11.17;62.22
10135;BME280;5107;48.850;8.924;2022-12-29T03:50:05;96248.75;;;11.10;62.92
10135;BME280;5107;48.850;8.924;2022-12-29T03:52:39;96256.19;;;11.06;62.92
10135;BME280;5107;48.850;8.924;2022-12-29T03:55:07;96248.50;;;11.05;62.87
10135;BME280;5107;48.850;8.924;2022-12-29T03:57:34;96260.75;;;10.97;63.16
10135;BME280;5107;48.850;8.924;2022-12-29T04:00:08;96254.47;;;10.98;62.97
10135;BME280;5107;48.850;8.924;2022-12-29T04:02:41;96251.94;;;10.90;63.12
10135;BME280;5107;48.850;8.924;2022-12-29T04:05:11;96258.59;;;10.86;63.67
10135;BME280;5107;48.850;8.924;2022-12-29T04:07:40;96259.19;;;10.88;63.76
10135;BME280;5107;48.850;8.924;2022-12-29T04:10:08;96256.41;;;10.90;64.02
10135;BME280;5107;48.850;8.924;2022-12-29T04:12:35;96254.47;;;10.98;63.47
10135;BME280;5107;48.850;8.924;2022-12-29T04:15:04;96272.72;;;11.00;63.59
10135;BME280;5107;48.850;8.924;2022-12-29T04:17:32;96264.28;;;11.05;63.38
10135;BME280;5107;48.850;8.924;2022-12-29T04:19:59;96268.28;;;11.00;64.14
10135;BME280;5107;48.850;8.924;2022-12-29T04:22:41;96254.22;;;10.93;64.10
10135;BME280;5107;48.850;8.924;2022-12-29T04:25:09;96270.13;;;10.85;65.05
10135;BME280;5107;48.850;8.924;2022-12-29T04:27:36;96250.06;;;10.84;64.87
10135;BME280;5107;48.850;8.924;2022-12-29T04:30:32;96246.97;;;10.81;65.10
10135;BME280;5107;48.850;8.924;2022-12-29T04:33:06;96245.88;;;10.90;64.51
10135;BME280;5107;48.850;8.924;2022-12-29T04:35:34;96240.16;;;10.86;64.82
10135;BME280;5107;48.850;8.924;2022-12-29T04:38:03;96226.00;;;10.87;64.63
10135;BME280;5107;48.850;8.924;2022-12-29T04:40:30;96229.25;;;10.89;65.00
10135;BME280;5107;48.850;8.924;2022-12-29T04:42:57;96233.34;;;10.92;64.81
10135;BME280;5107;48.850;8.924;2022-12-29T04:45:25;96217.81;;;10.97;64.63
10135;BME280;5107;48.850;8.924;2022-12-29T04:48:04;96228.53;;;10.95;64.94
10135;BME280;5107;48.850;8.924;2022-12-29T04:50:56;96232.28;;;10.86;65.38
10135;BME280;5107;48.850;8.924;2022-12-29T04:53:26;96228.81;;;10.86;65.63
10135;BME280;5107;48.850;8.924;2022-12-29T04:55:53;96214.03;;;10.85;65.52
10135;BME280;5107;48.850;8.924;2022-12-29T04:58:22;96218.72;;;10.89;65.57
10135;BME280;5107;48.850;8.924;2022-12-29T05:00:50;96220.47;;;10.82;65.96
10135;BME280;5107;48.850;8.924;2022-12-29T05:03:17;96223.84;;;10.76;66.20
10135;BME280;5107;48.850;8.924;2022-12-29T05:05:44;96228.84;;;10.71;66.39
10135;BME280;5107;48.850;8.924;2022-12-29T05:08:12;96219.38;;;10.77;66.05
10135;BME280;5107;48.850;8.924;2022-12-29T05:10:43;96227.19;;;10.70;66.64
10135;BME280;5107;48.850;8.924;2022-12-29T05:13:12;96213.31;;;10.76;66.61
10135;BME280;5107;48.850;8.924;2022-12-29T05:15:39;96219.75;;;10.74;66.63
10135;BME280;5107;48.850;8.924;2022-12-29T05:18:06;96217.28;;;10.72;66.78
10135;BME280;5107;48.850;8.924;2022-12-29T05:20:33;96237.91;;;10.69;67.23
10135;BME280;5107;48.850;8.924;2022-12-29T05:23:02;96225.19;;;10.72;67.05
10135;BME280;5107;48.850;8.924;2022-12-29T05:25:29;96220.63;;;10.81;66.91
10135;BME280;5107;48.850;8.924;2022-12-29T05:28:09;96221.66;;;10.65;67.84
10135;BME280;5107;48.850;8.924;2022-12-29T05:30:43;96224.47;;;10.78;66.82
10135;BME280;5107;48.850;8.924;2022-12-29T05:33:10;96215.28;;;10.74;67.11
10135;BME280;5107;48.850;8.924;2022-12-29T05:35:39;96234.34;;;10.76;67.18
10135;BME280;5107;48.850;8.924;2022-12-29T05:38:06;96236.63;;;10.79;67.00
10135;BME280;5107;48.850;8.924;2022-12-29T05:40:33;96250.78;;;10.78;67.43
10135;BME280;5107;48.850;8.924;2022-12-29T05:43:05;96253.03;;;10.81;67.74
10135;BME280;5107;48.850;8.924;2022-12-29T05:45:41;96249.41;;;10.82;67.76
10135;BME280;5107;48.850;8.924;2022-12-29T05:48:32;96233.81;;;10.81;67.66
10135;BME280;5107;48.850;8.924;2022-12-29T05:51:18;96242.34;;;10.83;67.86
10135;BME280;5107;48.850;8.924;2022-12-29T05:53:47;96230.00;;;10.83;67.71
10135;BME280;5107;48.850;8.924;2022-12-29T05:56:15;96228.28;;;10.76;67.94
10135;BME280;5107;48.850;8.924;2022-12-29T05:58:42;96223.75;;;10.70;67.84
10135;BME280;5107;48.850;8.924;2022-12-29T06:01:11;96218.50;;;10.70;68.20
10135;BME280;5107;48.850;8.924;2022-12-29T06:03:38;96209.06;;;10.60;68.70
10135;BME280;5107;48.850;8.924;2022-12-29T06:06:07;96223.03;;;10.61;68.54
10135;BME280;5107;48.850;8.924;2022-12-29T06:08:34;96232.34;;;10.63;68.17
10135;BME280;5107;48.850;8.924;2022-12-29T06:11:01;96228.66;;;10.58;68.58
10135;BME280;5107;48.850;8.924;2022-12-29T06:13:28;96229.09;;;10.47;68.94
10135;BME280;5107;48.850;8.924;2022-12-29T06:15:57;96233.09;;;10.43;69.31
10135;BME280;5107;48.850;8.924;2022-12-29T06:18:28;96235.53;;;10.44;69.15
10135;BME280;5107;48.850;8.924;2022-12-29T06:21:00;96241.34;;;10.40;69.45
10135;BME280;5107;48.850;8.924;2022-12-29T06:23:27;96232.63;;;10.39;69.54
10135;BME280;5107;48.850;8.924;2022-12-29T06:25:54;96228.66;;;10.43;69.16
10135;BME280;5107;48.850;8.924;2022-12-29T06:28:21;96227.19;;;10.41;69.38
10135;BME280;5107;48.850;8.924;2022-12-29T06:30:48;96225.72;;;10.38;69.57
10135;BME280;5107;48.850;8.924;2022-12-29T06:33:17;96228.34;;;10.38;69.36
10135;BME280;5107;48.850;8.924;2022-12-29T06:35:46;96217.66;;;10.40;69.51
10135;BME280;5107;48.850;8.924;2022-12-29T06:38:14;96237.53;;;10.42;69.32
10135;BME280;5107;48.850;8.924;2022-12-29T06:40:42;96227.84;;;10.43;69.34
10135;BME280;5107;48.850;8.924;2022-12-29T06:43:30;96240.00;;;10.44;69.19
10135;BME280;5107;48.850;8.924;2022-12-29T06:46:07;96222.41;;;10.44;68.96
10135;BME280;5107;48.850;8.924;2022-12-29T06:48:34;96229.66;;;10.42;69.12
10135;BME280;5107;48.850;8.924;2022-12-29T06:51:03;96230.09;;;10.46;68.70
10135;BME280;5107;48.850;8.924;2022-12-29T06:53:30;96235.91;;;10.41;68.91
10135;BME280;5107;48.850;8.924;2022-12-29T06:55:57;96229.19;;;10.39;68.88
10135;BME280;5107;48.850;8.924;2022-12-29T06:58:24;96228.09;;;10.33;69.31
10135;BME280;5107;48.850;8.924;2022-12-29T07:00:51;96226.28;;;10.34;69.04
10135;BME280;5107;48.850;8.924;2022-12-29T07:03:18;96218.56;;;10.32;69.47
10135;BME280;5107;48.850;8.924;2022-12-29T07:05:45;96221.75;;;10.27;69.39
10135;BME280;5107;48.850;8.924;2022-12-29T07:08:13;96211.50;;;10.33;69.15
10135;BME280;5107;48.850;8.924;2022-12-29T07:10:40;96207.31;;;10.38;68.62
10135;BME280;5107;48.850;8.924;2022-12-29T07:13:07;96220.94;;;10.42;68.36
10135;BME280;5107;48.850;8.924;2022-12-29T07:15:36;96210.69;;;10.47;67.78
10135;BME280;5107;48.850;8.924;2022-12-29T07:18:03;96224.22;;;10.44;68.25
10135;BME280;5107;48.850;8.924;2022-12-29T07:20:31;96223.75;;;10.55;67.74
10135;BME280;5107;48.850;8.924;2022-12-29T07:22:58;96222.75;;;10.56;67.36
10135;BME280;5107;48.850;8.924;2022-12-29T07:25:26;96221.41;;;10.60;67.20
10135;BME280;5107;48.850;8.924;2022-12-29T07:27:55;96219.66;;;10.67;66.84
10135;BME280;5107;48.850;8.924;2022-12-29T07:30:22;96231.81;;;10.68;66.92
10135;BME280;5107;48.850;8.924;2022-12-29T07:32:49;96219.91;;;10.72;66.62
10135;BME280;5107;48.850;8.924;2022-12-29T07:35:16;96219.56;;;10.75;66.21
10135;BME280;5107;48.850;8.924;2022-12-29T07:37:43;96227.09;;;10.78;65.79
10135;BME280;5107;48.850;8.924;2022-12-29T07:40:11;96235.00;;;10.78;65.66
10135;BME280;5107;48.850;8.924;2022-12-29T07:42:39;96236.25;;;10.82;65.40
10135;BME280;5107;48.850;8.924;2022-12-29T07:45:09;96234.00;;;10.79;65.37
10135;BME280;5107;48.850;8.924;2022-12-29T07:48:03;96232.38;;;10.78;65.26
10135;BME280;5107;48.850;8.924;2022-12-29T07:50:31;96244.16;;;10.82;65.24
10135;BME280;5107;48.850;8.924;2022-12-29T07:52:58;96247.16;;;10.79;65.34
10135;BME280;5107;48.850;8.924;2022-12-29T07:55:25;96240.06;;;10.80;65.28
10135;BME280;5107;48.850;8.924;2022-12-29T07:57:54;96242.34;;;10.83;64.88
10135;BME280;5107;48.850;8.924;2022-12-29T08:00:22;96247.06;;;10.87;64.77
10135;BME280;5107;48.850;8.924;2022-12-29T08:02:49;96253.22;;;10.94;64.28
10135;BME280;5107;48.850;8.924;2022-12-29T08:05:17;96259.56;;;11.00;64.28
10135;BME280;5107;48.850;8.924;2022-12-29T08:07:45;96261.56;;;10.98;64.65
10135;BME280;5107;48.850;8.924;2022-12-29T08:10:14;96263.66;;;11.02;63.94
10135;BME280;5107;48.850;8.924;2022-12-29T08:12:42;96270.34;;;11.05;63.73
10135;BME280;5107;48.850;8.924;2022-12-29T08:15:12;96269.56;;;11.05;63.86
10135;BME280;5107;48.850;8.924;2022-12-29T08:17:39;96258.41;;;11.02;63.78
10135;BME280;5107;48.850;8.924;2022-12-29T08:20:08;96264.19;;;10.98;64.12
10135;BME280;5107;48.850;8.924;2022-12-29T08:22:35;96250.22;;;10.97;64.15
10135;BME280;5107;48.850;8.924;2022-12-29T08:25:03;96252.84;;;10.97;63.94
10135;BME280;5107;48.850;8.924;2022-12-29T08:27:30;96249.22;;;10.98;63.84
10135;BME280;5107;48.850;8.924;2022-12-29T08:29:57;96248.41;;;10.98;64.35
10135;BME280;5107;48.850;8.924;2022-12-29T08:32:27;96254.47;;;10.98;64.20
10135;BME280;5107;48.850;8.924;2022-12-29T08:34:54;96243.22;;;11.05;63.69
10135;BME280;5107;48.850;8.924;2022-12-29T08:37:22;96250.22;;;11.12;63.46
10135;BME280;5107;48.850;8.924;2022-12-29T08:39:49;96252.03;;;11.12;63.74
10135;BME280;5107;48.850;8.924;2022-12-29T08:42:16;96253.72;;;11.19;63.13
10135;BME280;5107;48.850;8.924;2022-12-29T08:44:43;96253.91;;;11.18;63.68
10135;BME280;5107;48.850;8.924;2022-12-29T08:47:10;96260.19;;;11.17;63.41
10135;BME280;5107;48.850;8.924;2022-12-29T08:49:39;96263.47;;;11.40;62.17
10135;BME280;5107;48.850;8.924;2022-12-29T08:52:07;96263.41;;;11.69;61.44
10135;BME280;5107;48.850;8.924;2022-12-29T08:54:34;96254.31;;;11.93;60.52
10135;BME280;5107;48.850;8.924;2022-12-29T08:57:01;96260.78;;;12.12;59.81
10135;BME280;5107;48.850;8.924;2022-12-29T08:59:36;96259.09;;;12.32;59.65
10135;BME280;5107;48.850;8.924;2022-12-29T09:02:03;96277.34;;;12.27;59.62
10135;BME280;5107;48.850;8.924;2022-12-29T09:04:30;96274.88;;;12.26;60.17
10135;BME280;5107;48.850;8.924;2022-12-29T09:06:59;96276.84;;;12.17;60.37
10135;BME280;5107;48.850;8.924;2022-12-29T09:09:26;96286.88;;;12.07;61.57
10135;BME280;5107;48.850;8.924;2022-12-29T09:11:53;96277.97;;;12.08;60.82
10135;BME280;5107;48.850;8.924;2022-12-29T09:14:20;96284.06;;;12.08;60.52
10135;BME280;5107;48.850;8.924;2022-12-29T09:16:47;96285.06;;;12.07;61.27
10135;BME280;5107;48.850;8.924;2022-12-29T09:19:32;96283.28;;;12.14;60.57
10135;BME280;5107;48.850;8.924;2022-12-29T09:22:00;96287.69;;;12.29;60.01
10135;BME280;5107;48.850;8.924;2022-12-29T09:24:27;96295.63;;;12.29;60.26
10135;BME280;5107;48.850;8.924;2022-12-29T09:26:54;96294.06;;;12.41;59.64
10135;BME280;5107;48.850;8.924;2022-12-29T09:29:21;96295.06;;;12.40;59.88
10135;BME280;5107;48.850;8.924;2022-12-29T09:31:48;96300.44;;;12.46;59.60
10135;BME280;5107;48.850;8.924;2022-12-29T09:34:16;96299.78;;;12.44;60.25
10135;BME280;5107;48.850;8.924;2022-12-29T09:36:43;96300.66;;;12.51;60.09
10135;BME280;5107;48.850;8.924;2022-12-29T09:39:12;96299.84;;;12.51;60.57
10135;BME280;5107;48.850;8.924;2022-12-29T09:41:47;96305.78;;;12.60;61.30
10135;BME280;5107;48.850;8.924;2022-12-29T09:44:23;96297.94;;;12.73;60.12
10135;BME280;5107;48.850;8.924;2022-12-29T09:46:54;96298.38;;;13.11;59.14
10135;BME280;5107;48.850;8.924;2022-12-29T09:49:28;96301.66;;;13.13;59.26
10135;BME280;5107;48.850;8.924;2022-12-29T09:52:03;96305.00;;;12.93;60.45
10135;BME280;5107;48.850;8.924;2022-12-29T09:54:50;96297.94;;;12.73;61.26
10135;BME280;5107;48.850;8.924;2022-12-29T09:57:23;96313.34;;;12.63;62.34
10135;BME280;5107;48.850;8.924;2022-12-29T09:59:54;96311.06;;;12.60;62.68
10135;BME280;5107;48.850;8.924;2022-12-29T10:02:35;96311.72;;;12.40;63.65
10135;BME280;5107;48.850;8.924;2022-12-29T10:05:09;96321.59;;;12.32;64.20
10135;BME280;5107;48.850;8.924;2022-12-29T10:07:45;96308.50;;;12.17;65.38
10135;BME280;5107;48.850;8.924;2022-12-29T10:10:34;96312.09;;;11.88;68.69
10135;BME280;5107;48.850;8.924;2022-12-29T10:13:18;96308.38;;;11.68;70.39
10135;BME280;5107;48.850;8.924;2022-12-29T10:15:58;96306.03;;;11.58;70.59
10135;BME280;5107;48.850;8.924;2022-12-29T10:18:42;96309.78;;;11.49;70.95
10135;BME280;5107;48.850;8.924;2022-12-29T10:21:20;96307.16;;;11.49;71.08
10135;BME280;5107;48.850;8.924;2022-12-29T10:23:51;96320.97;;;11.51;69.83
10135;BME280;5107;48.850;8.924;2022-12-29T10:26:23;96326.31;;;11.58;70.18
10135;BME280;5107;48.850;8.924;2022-12-29T10:28:56;96318.34;;;11.72;67.85
10135;BME280;5107;48.850;8.924;2022-12-29T10:31:32;96321.66;;;11.74;68.79
10135;BME280;5107;48.850;8.924;2022-12-29T10:34:05;96317.66;;;11.78;68.03
10135;BME280;5107;48.850;8.924;2022-12-29T10:36:41;96331.31;;;11.89;68.27
10135;BME280;5107;48.850;8.924;2022-12-29T10:39:18;96332.47;;;11.80;68.65
10135;BME280;5107;48.850;8.924;2022-12-29T10:41:53;96331.66;;;11.64;70.79
10135;BME280;5107;48.850;8.924;2022-12-29T10:44:23;96316.53;;;11.73;70.98
10135;BME280;5107;48.850;8.924;2022-12-29T10:46:58;96321.00;;;12.08;71.59
10135;BME280;5107;48.850;8.924;2022-12-29T10:49:28;96310.31;;;11.95;70.24
10135;BME280;5107;48.850;8.924;2022-12-29T10:52:00;96312.63;;;11.84;70.38
10135;BME280;5107;48.850;8.924;2022-12-29T10:54:39;96306.47;;;11.98;69.60
10135;BME280;5107;48.850;8.924;2022-12-29T10:57:14;96299.94;;;12.36;68.66
10135;BME280;5107;48.850;8.924;2022-12-29T10:59:45;96305.34;;;12.56;66.99
10135;BME280;5107;48.850;8.924;2022-12-29T11:03:10;96308.78;;;12.84;66.50
10135;BME280;5107;48.850;8.924;2022-12-29T11:05:43;96309.31;;;13.01;65.83
10135;BME280;5107;48.850;8.924;2022-12-29T11:08:16;96291.47;;;13.10;63.62
10135;BME280;5107;48.850;8.924;2022-12-29T11:10:46;96312.69;;;12.88;64.99
10135;BME280;5107;48.850;8.924;2022-12-29T11:13:28;96318.53;;;12.84;64.69
10135;BME280;5107;48.850;8.924;2022-12-29T11:15:56;96312.69;;;12.88;64.53
10135;BME280;5107;48.850;8.924;2022-12-29T11:18:25;96312.75;;;13.02;63.42
10135;BME280;5107;48.850;8.924;2022-12-29T11:20:55;96329.63;;;13.01;64.45
10135;BME280;5107;48.850;8.924;2022-12-29T11:23:30;96322.22;;;13.17;62.20
10135;BME280;5107;48.850;8.924;2022-12-29T11:26:16;96316.22;;;13.02;61.90
10135;BME280;5107;48.850;8.924;2022-12-29T11:28:47;96302.03;;;12.75;62.09
10135;BME280;5107;48.850;8.924;2022-12-29T11:31:21;96333.81;;;12.61;62.74
10135;BME280;5107;48.850;8.924;2022-12-29T11:33:48;96329.50;;;12.53;61.27
10135;BME280;5107;48.850;8.924;2022-12-29T11:36:19;96318.44;;;12.43;62.52
10135;BME280;5107;48.850;8.924;2022-12-29T11:38:50;96296.66;;;12.34;62.06
10135;BME280;5107;48.850;8.924;2022-12-29T11:41:23;96310.84;;;12.33;61.44
10135;BME280;5107;48.850;8.924;2022-12-29T11:43:54;96315.63;;;12.23;62.00
10135;BME280;5107;48.850;8.924;2022-12-29T11:46:26;96314.75;;;12.16;62.64
10135;BME280;5107;48.850;8.924;2022-12-29T11:48:54;96321.75;;;12.02;63.08
10135;BME280;5107;48.850;8.924;2022-12-29T11:51:27;96321.25;;;11.92;63.87
10135;BME280;5107;48.850;8.924;2022-12-29T11:53:58;96315.50;;;11.89;64.29
10135;BME280;5107;48.850;8.924;2022-12-29T11:56:35;96313.63;;;11.83;65.32
10135;BME280;5107;48.850;8.924;2022-12-29T11:59:41;96318.66;;;11.77;66.00
10135;BME280;5107;48.850;8.924;2022-12-29T12:02:32;96301.22;;;11.62;66.98
10135;BME280;5107;48.850;8.924;2022-12-29T12:05:09;96311.94;;;11.60;67.17
10135;BME280;5107;48.850;8.924;2022-12-29T12:07:41;96302.75;;;12.13;66.17
10135;BME280;5107;48.850;8.924;2022-12-29T12:10:29;96309.09;;;12.40;65.90
10135;BME280;5107;48.850;8.924;2022-12-29T12:13:03;96309.94;;;12.47;65.51
10135;BME280;5107;48.850;8.924;2022-12-29T12:15:39;96313.44;;;12.05;66.99
10135;BME280;5107;48.850;8.924;2022-12-29T12:18:11;96310.50;;;12.15;66.63
10135;BME280;5107;48.850;8.924;2022-12-29T12:20:47;96318.47;;;12.00;67.83
10135;BME280;5107;48.850;8.924;2022-12-29T12:23:30;96323.34;;;11.82;68.65
10135;BME280;5107;48.850;8.924;2022-12-29T12:26:09;96308.47;;;11.74;68.72
10135;BME280;5107;48.850;8.924;2022-12-29T12:28:46;96309.94;;;11.77;67.01
10135;BME280;5107;48.850;8.924;2022-12-29T12:31:27;96308.53;;;11.81;67.45
10135;BME280;5107;48.850;8.924;2022-12-29T12:34:07;96306.34;;;11.85;67.39
10135;BME280;5107;48.850;8.924;2022-12-29T12:37:06;96286.94;;;12.13;66.63
10135;BME280;5107;48.850;8.924;2022-12-29T12:39:47;96297.00;;;12.52;66.27
10135;BME280;5107;48.850;8.924;2022-12-29T12:42:34;96292.28;;;12.76;64.40
10135;BME280;5107;48.850;8.924;2022-12-29T12:45:34;96286.94;;;12.97;63.11
10135;BME280;5107;48.850;8.924;2022-12-29T12:48:26;96288.19;;;12.73;64.11
10135;BME280;5107;48.850;8.924;2022-12-29T12:51:00;96288.13;;;12.60;63.60
10135;BME280;5107;48.850;8.924;2022-12-29T12:53:53;96286.06;;;12.55;63.56
10135;BME280;5107;48.850;8.924;2022-12-29T12:56:47;96263.47;;;12.46;63.49
10135;BME280;5107;48.850;8.924;2022-12-29T12:59:35;96284.09;;;12.36;63.43
10135;BME280;5107;48.850;8.924;2022-12-29T13:02:16;96289.13;;;12.31;64.43
10135;BME280;5107;48.850;8.924;2022-12-29T13:05:03;96285.66;;;12.31;63.14
10135;BME280;5107;48.850;8.924;2022-12-29T13:07:45;96277.19;;;12.35;62.78
10135;BME280;5107;48.850;8.924;2022-12-29T13:10:36;96265.63;;;12.36;61.88
10135;BME280;5107;48.850;8.924;2022-12-29T13:13:46;96274.91;;;12.32;62.18
10135;BME280;5107;48.850;8.924;2022-12-29T13:16:27;96268.84;;;12.32;61.85
10135;BME280;5107;48.850;8.924;2022-12-29T13:19:01;96256.66;;;12.31;61.69
10135;BME280;5107;48.850;8.924;2022-12-29T13:21:46;96255.03;;;12.30;61.76
10135;BME280;5107;48.850;8.924;2022-12-29T13:24:25;96258.22;;;12.25;61.60
10135;BME280;5107;48.850;8.924;2022-12-29T13:26:59;96253.72;;;12.19;62.44
10135;BME280;5107;48.850;8.924;2022-12-29T13:29:34;96256.75;;;12.16;62.86
10135;BME280;5107;48.850;8.924;2022-12-29T13:32:19;96266.38;;;12.02;64.33
10135;BME280;5107;48.850;8.924;2022-12-29T13:35:01;96266.91;;;11.98;64.34
10135;BME280;5107;48.850;8.924;2022-12-29T13:37:35;96254.88;;;11.89;65.28
10135;BME280;5107;48.850;8.924;2022-12-29T13:40:15;96264.41;;;11.90;64.99
10135;BME280;5107;48.850;8.924;2022-12-29T13:42:43;96250.81;;;11.86;66.46
10135;BME280;5107;48.850;8.924;2022-12-29T13:45:15;96259.38;;;11.73;67.76
10135;BME280;5107;48.850;8.924;2022-12-29T13:47:48;96263.34;;;11.63;68.32
10135;BME280;5107;48.850;8.924;2022-12-29T13:50:20;96266.88;;;11.55;69.43